sensor_id;sensor_type;location;lat;lon;timestamp;pressure;altitude;pressure_sealevel;temperature;humidity
16355;BME280;8287;51.644;8.494;2022-11-06T00:00:45;100459.13;;;11.79;69.02
16355;BME280;8287;51.644;8.494;2022-11-06T00:03:11;100456.94;;;11.81;68.90
16355;BME280;8287;51.644;8.494;2022-11-06T00:05:39;100458.59;;;11.60;69.80
16355;BME280;8287;51.644;8.494;2022-11-06T00:08:34;100462.84;;;11.70;69.60
16355;BME280;8287;51.644;8.494;2022-11-06T00:11:07;100459.41;;;11.69;69.33
16355;BME280;8287;51.644;8.494;2022-11-06T00:13:34;100470.00;;;11.61;69.50
16355;BME280;8287;51.644;8.494;2022-11-06T00:16:02;100470.81;;;11.70;69.41
16355;BME280;8287;51.644;8.494;2022-11-06T00:18:28;100471.56;;;11.62;69.98
16355;BME280;8287;51.644;8.494;2022-11-06T00:20:55;100462.97;;;11.65;69.58
16355;BME280;8287;51.644;8.494;2022-11-06T00:23:21;100466.34;;;11.57;70.07
16355;BME280;8287;51.644;8.494;2022-11-06T00:25:49;100463.09;;;11.60;70.35
16355;BME280;8287;51.644;8.494;2022-11-06T00:28:20;100467.19;;;11.66;69.68
16355;BME280;8287;51.644;8.494;2022-11-06T00:30:47;100462.97;;;11.65;69.60
16355;BME280;8287;51.644;8.494;2022-11-06T00:33:14;100464.84;;;11.64;69.80
16355;BME280;8287;51.644;8.494;2022-11-06T00:35:40;100474.06;;;11.67;69.77
16355;BME280;8287;51.644;8.494;2022-11-06T00:38:07;100475.63;;;11.59;69.97
16355;BME280;8287;51.644;8.494;2022-11-06T00:40:33;100460.63;;;11.63;69.74
16355;BME280;8287;51.644;8.494;2022-11-06T00:43:01;100473.72;;;11.60;69.71
16355;BME280;8287;51.644;8.494;2022-11-06T00:45:28;100474.16;;;11.53;70.57
16355;BME280;8287;51.644;8.494;2022-11-06T00:47:55;100473.38;;;11.53;70.79
16355;BME280;8287;51.644;8.494;2022-11-06T00:50:21;100473.69;;;11.51;70.74
16355;BME280;8287;51.644;8.494;2022-11-06T00:52:50;100476.63;;;11.50;70.96
16355;BME280;8287;51.644;8.494;2022-11-06T00:55:17;100468.66;;;11.50;71.01
16355;BME280;8287;51.644;8.494;2022-11-06T00:57:43;100464.91;;;11.51;70.96
16355;BME280;8287;51.644;8.494;2022-11-06T01:00:13;100461.44;;;11.42;71.40
16355;BME280;8287;51.644;8.494;2022-11-06T01:02:42;100454.28;;;11.42;71.33
16355;BME280;8287;51.644;8.494;2022-11-06T01:05:10;100447.09;;;11.43;70.97
16355;BME280;8287;51.644;8.494;2022-11-06T01:07:37;100445.13;;;11.48;70.82
16355;BME280;8287;51.644;8.494;2022-11-06T01:10:04;100450.56;;;11.52;70.88
16355;BME280;8287;51.644;8.494;2022-11-06T01:12:31;100452.50;;;11.60;70.63
16355;BME280;8287;51.644;8.494;2022-11-06T01:14:58;100450.44;;;11.57;70.99
16355;BME280;8287;51.644;8.494;2022-11-06T01:17:27;100443.59;;;11.64;70.65
16355;BME280;8287;51.644;8.494;2022-11-06T01:19:53;100432.47;;;11.54;71.17
16355;BME280;8287;51.644;8.494;2022-11-06T01:22:20;100430.66;;;11.63;70.60
16355;BME280;8287;51.644;8.494;2022-11-06T01:24:46;100437.53;;;11.64;71.25
16355;BME280;8287;51.644;8.494;2022-11-06T01:27:13;100423.19;;;11.65;71.04
16355;BME280;8287;51.644;8.494;2022-11-06T01:29:39;100428.66;;;11.68;70.66
16355;BME280;8287;51.644;8.494;2022-11-06T01:32:06;100428.03;;;11.71;70.93
16355;BME280;8287;51.644;8.494;2022-11-06T01:34:34;100417.25;;;11.68;70.45
16355;BME280;8287;51.644;8.494;2022-11-06T01:37:01;100413.81;;;11.76;70.53
16355;BME280;8287;51.644;8.494;2022-11-06T01:39:28;100420.22;;;11.75;70.35
16355;BME280;8287;51.644;8.494;2022-11-06T01:41:54;100425.25;;;11.76;69.96
16355;BME280;8287;51.644;8.494;2022-11-06T01:47:39;100441.34;;;11.88;69.56
16355;BME280;8287;51.644;8.494;2022-11-06T01:50:08;100448.25;;;11.98;69.54
16355;BME280;8287;51.644;8.494;2022-11-06T01:52:37;100452.16;;;12.00;69.74
16355;BME280;8287;51.644;8.494;2022-11-06T01:55:08;100440.44;;;12.01;69.29
16355;BME280;8287;51.644;8.494;2022-11-06T01:57:38;100434.16;;;11.97;69.84
16355;BME280;8287;51.644;8.494;2022-11-06T02:00:06;100428.38;;;11.95;70.13
16355;BME280;8287;51.644;8.494;2022-11-06T02:02:33;100429.00;;;11.84;69.76
16355;BME280;8287;51.644;8.494;2022-11-06T02:05:00;100414.03;;;11.96;69.46
16355;BME280;8287;51.644;8.494;2022-11-06T02:07:28;100417.31;;;12.02;69.90
16355;BME280;8287;51.644;8.494;2022-11-06T02:09:55;100410.09;;;11.94;69.38
16355;BME280;8287;51.644;8.494;2022-11-06T02:12:32;100410.72;;;11.91;69.57
16355;BME280;8287;51.644;8.494;2022-11-06T02:15:07;100398.41;;;11.95;69.51
16355;BME280;8287;51.644;8.494;2022-11-06T02:17:49;100400.75;;;11.96;68.96
16355;BME280;8287;51.644;8.494;2022-11-06T02:20:22;100396.84;;;12.02;69.06
16355;BME280;8287;51.644;8.494;2022-11-06T02:23:28;100389.34;;;12.04;68.62
16355;BME280;8287;51.644;8.494;2022-11-06T02:26:09;100376.69;;;11.93;69.05
16355;BME280;8287;51.644;8.494;2022-11-06T02:28:46;100375.91;;;11.92;68.87
16355;BME280;8287;51.644;8.494;2022-11-06T02:31:19;100387.16;;;11.81;69.36
16355;BME280;8287;51.644;8.494;2022-11-06T02:33:53;100367.50;;;11.90;69.16
16355;BME280;8287;51.644;8.494;2022-11-06T02:36:29;100370.13;;;11.82;68.85
16355;BME280;8287;51.644;8.494;2022-11-06T02:39:00;100357.63;;;11.91;68.80
16355;BME280;8287;51.644;8.494;2022-11-06T02:41:30;100360.00;;;11.92;68.97
16355;BME280;8287;51.644;8.494;2022-11-06T02:44:02;100360.28;;;11.91;68.30
16355;BME280;8287;51.644;8.494;2022-11-06T02:46:33;100352.94;;;11.79;68.73
16355;BME280;8287;51.644;8.494;2022-11-06T02:49:03;100350.28;;;11.79;68.64
16355;BME280;8287;51.644;8.494;2022-11-06T02:51:35;100358.09;;;11.76;68.72
16355;BME280;8287;51.644;8.494;2022-11-06T02:54:04;100354.66;;;11.75;69.21
16355;BME280;8287;51.644;8.494;2022-11-06T02:56:36;100359.19;;;11.75;68.67
16355;BME280;8287;51.644;8.494;2022-11-06T02:59:08;100350.88;;;11.68;69.53
16355;BME280;8287;51.644;8.494;2022-11-06T03:01:40;100350.22;;;11.54;69.47
16355;BME280;8287;51.644;8.494;2022-11-06T03:04:13;100351.81;;;11.63;69.64
16355;BME280;8287;51.644;8.494;2022-11-06T03:06:45;100347.94;;;11.61;69.59
16355;BME280;8287;51.644;8.494;2022-11-06T03:09:14;100343.56;;;11.65;69.03
16355;BME280;8287;51.644;8.494;2022-11-06T03:11:45;100344.03;;;11.58;69.80
16355;BME280;8287;51.644;8.494;2022-11-06T03:14:17;100344.78;;;11.59;69.50
16355;BME280;8287;51.644;8.494;2022-11-06T03:16:51;100340.06;;;11.56;69.94
16355;BME280;8287;51.644;8.494;2022-11-06T03:19:24;100334.28;;;11.45;69.65
16355;BME280;8287;51.644;8.494;2022-11-06T03:21:59;100329.75;;;11.46;69.59
16355;BME280;8287;51.644;8.494;2022-11-06T03:24:30;100348.78;;;11.48;69.54
16355;BME280;8287;51.644;8.494;2022-11-06T03:27:05;100345.22;;;11.52;69.27
16355;BME280;8287;51.644;8.494;2022-11-06T03:29:38;100356.28;;;11.54;69.67
16355;BME280;8287;51.644;8.494;2022-11-06T03:32:12;100355.53;;;11.54;69.76
16355;BME280;8287;51.644;8.494;2022-11-06T03:34:46;100349.72;;;11.52;69.85
16355;BME280;8287;51.644;8.494;2022-11-06T03:37:16;100347.25;;;11.47;69.51
16355;BME280;8287;51.644;8.494;2022-11-06T03:39:47;100345.50;;;11.42;69.90
16355;BME280;8287;51.644;8.494;2022-11-06T03:42:19;100352.66;;;11.33;70.02
16355;BME280;8287;51.644;8.494;2022-11-06T03:44:51;100345.19;;;11.44;69.88
16355;BME280;8287;51.644;8.494;2022-11-06T03:47:22;100344.13;;;11.53;69.64
16355;BME280;8287;51.644;8.494;2022-11-06T03:49:53;100345.69;;;11.54;69.45
16355;BME280;8287;51.644;8.494;2022-11-06T03:52:27;100343.81;;;11.55;69.07
16355;BME280;8287;51.644;8.494;2022-11-06T03:55:00;100342.09;;;11.50;69.45
16355;BME280;8287;51.644;8.494;2022-11-06T03:57:32;100339.63;;;11.54;69.40
16355;BME280;8287;51.644;8.494;2022-11-06T04:00:05;100340.72;;;11.53;69.61
16355;BME280;8287;51.644;8.494;2022-11-06T04:02:35;100352.38;;;11.43;69.91
16355;BME280;8287;51.644;8.494;2022-11-06T04:05:06;100345.84;;;11.49;69.20
16355;BME280;8287;51.644;8.494;2022-11-06T04:07:36;100339.28;;;11.47;69.17
16355;BME280;8287;51.644;8.494;2022-11-06T04:10:07;100333.34;;;11.41;70.12
16355;BME280;8287;51.644;8.494;2022-11-06T04:13:07;100333.19;;;11.38;70.20
16355;BME280;8287;51.644;8.494;2022-11-06T04:15:53;100330.34;;;11.43;69.89
16355;BME280;8287;51.644;8.494;2022-11-06T04:18:20;100330.84;;;11.45;69.78
16355;BME280;8287;51.644;8.494;2022-11-06T04:20:50;100328.97;;;11.37;70.11
16355;BME280;8287;51.644;8.494;2022-11-06T04:23:43;100325.34;;;11.33;70.19
16355;BME280;8287;51.644;8.494;2022-11-06T04:26:41;100321.00;;;11.37;70.49
16355;BME280;8287;51.644;8.494;2022-11-06T04:29:17;100310.56;;;11.40;70.42
16355;BME280;8287;51.644;8.494;2022-11-06T04:31:57;100317.09;;;11.43;70.03
16355;BME280;8287;51.644;8.494;2022-11-06T04:34:32;100313.34;;;11.35;69.97
16355;BME280;8287;51.644;8.494;2022-11-06T04:37:09;100331.78;;;11.40;70.59
16355;BME280;8287;51.644;8.494;2022-11-06T04:39:46;100336.75;;;11.42;70.53
16355;BME280;8287;51.644;8.494;2022-11-06T04:42:20;100341.44;;;11.36;70.80
16355;BME280;8287;51.644;8.494;2022-11-06T04:44:51;100340.38;;;11.46;70.40
16355;BME280;8287;51.644;8.494;2022-11-06T04:47:23;100337.38;;;11.47;70.37
16355;BME280;8287;51.644;8.494;2022-11-06T04:49:52;100329.44;;;11.39;70.85
16355;BME280;8287;51.644;8.494;2022-11-06T04:52:24;100329.75;;;11.46;70.48
16355;BME280;8287;51.644;8.494;2022-11-06T04:54:52;100331.31;;;11.47;70.14
16355;BME280;8287;51.644;8.494;2022-11-06T04:57:20;100324.13;;;11.47;70.19
16355;BME280;8287;51.644;8.494;2022-11-06T04:59:47;100314.94;;;11.53;70.53
16355;BME280;8287;51.644;8.494;2022-11-06T05:02:13;100320.72;;;11.47;70.66
16355;BME280;8287;51.644;8.494;2022-11-06T05:04:41;100316.66;;;11.49;70.48
16355;BME280;8287;51.644;8.494;2022-11-06T05:07:08;100322.13;;;11.53;70.43
16355;BME280;8287;51.644;8.494;2022-11-06T05:09:34;100313.38;;;11.52;70.63
16355;BME280;8287;51.644;8.494;2022-11-06T05:12:01;100312.75;;;11.55;70.10
16355;BME280;8287;51.644;8.494;2022-11-06T05:14:28;100307.97;;;11.57;70.37
16355;BME280;8287;51.644;8.494;2022-11-06T05:16:56;100302.81;;;11.61;70.25
16355;BME280;8287;51.644;8.494;2022-11-06T05:19:23;100302.81;;;11.61;70.57
16355;BME280;8287;51.644;8.494;2022-11-06T05:21:51;100295.31;;;11.63;69.76
16355;BME280;8287;51.644;8.494;2022-11-06T05:24:35;100292.34;;;11.64;69.85
16355;BME280;8287;51.644;8.494;2022-11-06T05:27:02;100287.97;;;11.68;70.13
16355;BME280;8287;51.644;8.494;2022-11-06T05:29:28;100283.44;;;11.69;69.44
16355;BME280;8287;51.644;8.494;2022-11-06T05:31:55;100289.84;;;11.68;69.60
16355;BME280;8287;51.644;8.494;2022-11-06T05:34:22;100286.72;;;11.66;70.12
16355;BME280;8287;51.644;8.494;2022-11-06T05:36:48;100277.19;;;11.65;69.75
16355;BME280;8287;51.644;8.494;2022-11-06T05:39:16;100277.66;;;11.67;69.47
16355;BME280;8287;51.644;8.494;2022-11-06T05:41:43;100261.41;;;11.60;70.16
16355;BME280;8287;51.644;8.494;2022-11-06T05:44:09;100269.53;;;11.55;70.39
16355;BME280;8287;51.644;8.494;2022-11-06T05:46:36;100273.28;;;11.54;70.16
16355;BME280;8287;51.644;8.494;2022-11-06T05:49:02;100271.84;;;11.48;70.46
16355;BME280;8287;51.644;8.494;2022-11-06T05:51:29;100271.38;;;11.54;70.66
16355;BME280;8287;51.644;8.494;2022-11-06T05:53:55;100268.56;;;11.51;70.08
16355;BME280;8287;51.644;8.494;2022-11-06T05:56:23;100268.72;;;11.54;70.33
16355;BME280;8287;51.644;8.494;2022-11-06T05:58:50;100260.47;;;11.56;70.20
16355;BME280;8287;51.644;8.494;2022-11-06T06:01:16;100252.03;;;11.54;70.27
16355;BME280;8287;51.644;8.494;2022-11-06T06:03:43;100257.34;;;11.54;70.66
16355;BME280;8287;51.644;8.494;2022-11-06T06:06:09;100254.72;;;11.62;70.39
16355;BME280;8287;51.644;8.494;2022-11-06T06:08:36;100257.22;;;11.59;70.48
16355;BME280;8287;51.644;8.494;2022-11-06T06:11:04;100257.69;;;11.61;70.11
16355;BME280;8287;51.644;8.494;2022-11-06T06:13:34;100260.00;;;11.54;70.51
16355;BME280;8287;51.644;8.494;2022-11-06T06:16:01;100248.66;;;11.62;70.32
16355;BME280;8287;51.644;8.494;2022-11-06T06:18:28;100252.25;;;11.57;70.15
16355;BME280;8287;51.644;8.494;2022-11-06T06:20:56;100249.25;;;11.59;69.52
16355;BME280;8287;51.644;8.494;2022-11-06T06:23:23;100250.22;;;11.63;69.93
16355;BME280;8287;51.644;8.494;2022-11-06T06:25:49;100248.66;;;11.62;69.73
16355;BME280;8287;51.644;8.494;2022-11-06T06:28:16;100242.66;;;11.48;70.05
16355;BME280;8287;51.644;8.494;2022-11-06T06:30:44;100247.50;;;11.54;70.15
16355;BME280;8287;51.644;8.494;2022-11-06T06:33:10;100239.53;;;11.54;69.55
16355;BME280;8287;51.644;8.494;2022-11-06T06:35:37;100247.50;;;11.54;69.53
16355;BME280;8287;51.644;8.494;2022-11-06T06:38:03;100252.66;;;11.42;70.09
16355;BME280;8287;51.644;8.494;2022-11-06T06:40:30;100247.34;;;11.51;69.44
16355;BME280;8287;51.644;8.494;2022-11-06T06:42:57;100250.00;;;11.42;69.65
16355;BME280;8287;51.644;8.494;2022-11-06T06:45:24;100249.53;;;11.49;69.65
16355;BME280;8287;51.644;8.494;2022-11-06T06:47:52;100247.97;;;11.48;69.91
16355;BME280;8287;51.644;8.494;2022-11-06T06:50:19;100254.50;;;11.42;69.90
16355;BME280;8287;51.644;8.494;2022-11-06T06:52:45;100255.44;;;11.37;70.03
16355;BME280;8287;51.644;8.494;2022-11-06T06:55:12;100261.84;;;11.36;69.54
16355;BME280;8287;51.644;8.494;2022-11-06T06:57:39;100257.47;;;11.32;69.85
16355;BME280;8287;51.644;8.494;2022-11-06T07:00:07;100252.78;;;11.37;69.65
16355;BME280;8287;51.644;8.494;2022-11-06T07:02:33;100251.06;;;11.33;69.65
16355;BME280;8287;51.644;8.494;2022-11-06T07:05:01;100249.22;;;11.42;69.53
16355;BME280;8287;51.644;8.494;2022-11-06T07:07:28;100251.53;;;11.35;69.60
16355;BME280;8287;51.644;8.494;2022-11-06T07:09:54;100250.78;;;11.43;69.71
16355;BME280;8287;51.644;8.494;2022-11-06T07:12:21;100251.88;;;11.42;69.40
16355;BME280;8287;51.644;8.494;2022-11-06T07:14:48;100255.00;;;11.35;69.35
16355;BME280;8287;51.644;8.494;2022-11-06T07:17:14;100253.75;;;11.41;69.28
16355;BME280;8287;51.644;8.494;2022-11-06T07:19:41;100259.66;;;11.38;69.17
16355;BME280;8287;51.644;8.494;2022-11-06T07:22:09;100254.84;;;11.40;69.53
16355;BME280;8287;51.644;8.494;2022-11-06T07:24:39;100252.19;;;11.40;69.60
16355;BME280;8287;51.644;8.494;2022-11-06T07:27:05;100257.50;;;11.40;69.31
16355;BME280;8287;51.644;8.494;2022-11-06T07:29:32;100260.44;;;11.47;68.95
16355;BME280;8287;51.644;8.494;2022-11-06T07:31:58;100269.53;;;11.55;68.99
16355;BME280;8287;51.644;8.494;2022-11-06T07:34:25;100247.66;;;11.49;69.07
16355;BME280;8287;51.644;8.494;2022-11-06T07:36:52;100245.78;;;11.33;69.70
16355;BME280;8287;51.644;8.494;2022-11-06T07:39:20;100248.78;;;11.48;68.73
16355;BME280;8287;51.644;8.494;2022-11-06T07:41:46;100255.50;;;11.63;68.77
16355;BME280;8287;51.644;8.494;2022-11-06T07:44:13;100260.34;;;11.69;68.12
16355;BME280;8287;51.644;8.494;2022-11-06T07:46:39;100248.31;;;11.80;68.20
16355;BME280;8287;51.644;8.494;2022-11-06T07:49:06;100254.88;;;11.83;67.83
16355;BME280;8287;51.644;8.494;2022-11-06T07:51:32;100257.53;;;11.83;67.30
16355;BME280;8287;51.644;8.494;2022-11-06T07:53:59;100250.19;;;11.88;67.71
16355;BME280;8287;51.644;8.494;2022-11-06T07:56:27;100252.03;;;11.96;67.29
16355;BME280;8287;51.644;8.494;2022-11-06T07:58:53;100246.91;;;11.91;66.92
16355;BME280;8287;51.644;8.494;2022-11-06T08:01:20;100253.63;;;11.89;67.00
16355;BME280;8287;51.644;8.494;2022-11-06T08:03:47;100241.13;;;11.98;67.48
16355;BME280;8287;51.644;8.494;2022-11-06T08:06:14;100240.97;;;11.86;67.98
16355;BME280;8287;51.644;8.494;2022-11-06T08:08:40;100250.34;;;11.92;66.96
16355;BME280;8287;51.644;8.494;2022-11-06T08:11:08;100254.84;;;12.00;67.32
16355;BME280;8287;51.644;8.494;2022-11-06T08:13:37;100250.78;;;12.02;66.74
16355;BME280;8287;51.644;8.494;2022-11-06T08:16:04;100255.63;;;12.09;66.86
16355;BME280;8287;51.644;8.494;2022-11-06T08:18:31;100253.91;;;12.13;66.10
16355;BME280;8287;51.644;8.494;2022-11-06T08:20:58;100267.94;;;12.22;66.39
16355;BME280;8287;51.644;8.494;2022-11-06T08:23:25;100262.16;;;12.28;65.59
16355;BME280;8287;51.644;8.494;2022-11-06T08:25:53;100263.25;;;12.27;65.97
16355;BME280;8287;51.644;8.494;2022-11-06T08:28:20;100264.91;;;12.40;65.16
16355;BME280;8287;51.644;8.494;2022-11-06T08:30:48;100264.00;;;12.45;65.35
16355;BME280;8287;51.644;8.494;2022-11-06T08:33:14;100268.97;;;12.55;64.87
16355;BME280;8287;51.644;8.494;2022-11-06T08:35:41;100267.25;;;12.50;65.16
16355;BME280;8287;51.644;8.494;2022-11-06T08:38:08;100259.59;;;12.49;64.32
16355;BME280;8287;51.644;8.494;2022-11-06T08:40:35;100262.53;;;12.56;64.68
16355;BME280;8287;51.644;8.494;2022-11-06T08:43:04;100255.47;;;12.60;64.95
16355;BME280;8287;51.644;8.494;2022-11-06T08:45:31;100248.59;;;12.59;64.77
16355;BME280;8287;51.644;8.494;2022-11-06T08:48:01;100244.03;;;12.68;65.34
16355;BME280;8287;51.644;8.494;2022-11-06T08:50:29;100243.28;;;12.59;64.91
16355;BME280;8287;51.644;8.494;2022-11-06T08:52:56;100245.31;;;12.62;65.14
16355;BME280;8287;51.644;8.494;2022-11-06T08:55:22;100243.13;;;12.64;64.86
16355;BME280;8287;51.644;8.494;2022-11-06T08:57:49;100235.78;;;12.61;64.61
16355;BME280;8287;51.644;8.494;2022-11-06T09:00:16;100230.56;;;12.73;64.36
16355;BME280;8287;51.644;8.494;2022-11-06T09:02:42;100220.78;;;12.56;65.18
16355;BME280;8287;51.644;8.494;2022-11-06T09:05:10;100208.66;;;12.47;65.17
16355;BME280;8287;51.644;8.494;2022-11-06T09:07:37;100207.47;;;12.27;66.23
16355;BME280;8287;51.644;8.494;2022-11-06T09:10:04;100210.06;;;12.36;66.68
16355;BME280;8287;51.644;8.494;2022-11-06T09:12:31;100198.38;;;12.66;65.57
16355;BME280;8287;51.644;8.494;2022-11-06T09:14:58;100201.88;;;12.58;65.54
16355;BME280;8287;51.644;8.494;2022-11-06T09:17:24;100205.75;;;12.98;64.43
16355;BME280;8287;51.644;8.494;2022-11-06T09:19:51;100205.34;;;13.16;65.00
16355;BME280;8287;51.644;8.494;2022-11-06T09:22:19;100202.28;;;13.26;63.92
16355;BME280;8287;51.644;8.494;2022-11-06T09:24:46;100205.13;;;13.41;63.27
16355;BME280;8287;51.644;8.494;2022-11-06T09:27:12;100209.91;;;13.48;63.03
16355;BME280;8287;51.644;8.494;2022-11-06T09:29:39;100204.22;;;13.58;62.83
16355;BME280;8287;51.644;8.494;2022-11-06T09:32:08;100187.59;;;13.61;61.81
16355;BME280;8287;51.644;8.494;2022-11-06T09:34:35;100188.34;;;13.61;62.13
16355;BME280;8287;51.644;8.494;2022-11-06T09:37:02;100189.66;;;13.76;62.02
16355;BME280;8287;51.644;8.494;2022-11-06T09:39:29;100188.66;;;13.80;61.80
16355;BME280;8287;51.644;8.494;2022-11-06T09:42:00;100187.22;;;13.83;62.28
16355;BME280;8287;51.644;8.494;2022-11-06T09:44:44;100190.47;;;13.88;61.10
16355;BME280;8287;51.644;8.494;2022-11-06T09:47:17;100200.25;;;13.96;60.32
16355;BME280;8287;51.644;8.494;2022-11-06T09:49:49;100200.94;;;14.05;60.72
16355;BME280;8287;51.644;8.494;2022-11-06T09:52:21;100203.94;;;14.04;61.15
16355;BME280;8287;51.644;8.494;2022-11-06T09:54:56;100205.47;;;14.05;61.29
16355;BME280;8287;51.644;8.494;2022-11-06T09:57:28;100190.31;;;14.17;61.03
16355;BME280;8287;51.644;8.494;2022-11-06T09:59:59;100186.78;;;14.25;61.04
16355;BME280;8287;51.644;8.494;2022-11-06T10:02:29;100192.00;;;14.22;60.05
16355;BME280;8287;51.644;8.494;2022-11-06T10:05:02;100194.81;;;14.37;60.25
16355;BME280;8287;51.644;8.494;2022-11-06T10:07:33;100192.81;;;14.46;60.41
16355;BME280;8287;51.644;8.494;2022-11-06T10:10:04;100199.94;;;14.54;60.12
16355;BME280;8287;51.644;8.494;2022-11-06T10:12:39;100197.69;;;14.44;60.30
16355;BME280;8287;51.644;8.494;2022-11-06T10:15:17;100188.09;;;14.19;61.44
16355;BME280;8287;51.644;8.494;2022-11-06T10:17:53;100170.69;;;14.58;59.17
16355;BME280;8287;51.644;8.494;2022-11-06T10:20:28;100160.59;;;14.75;59.56
16355;BME280;8287;51.644;8.494;2022-11-06T10:23:04;100161.91;;;14.81;59.39
16355;BME280;8287;51.644;8.494;2022-11-06T10:25:44;100165.88;;;14.87;58.99
16355;BME280;8287;51.644;8.494;2022-11-06T10:28:22;100159.91;;;14.90;58.83
16355;BME280;8287;51.644;8.494;2022-11-06T10:30:56;100156.34;;;14.98;58.90
16355;BME280;8287;51.644;8.494;2022-11-06T10:33:36;100138.94;;;15.04;58.33
16355;BME280;8287;51.644;8.494;2022-11-06T10:36:09;100138.03;;;15.12;58.14
16355;BME280;8287;51.644;8.494;2022-11-06T10:38:40;100124.28;;;15.10;57.91
16355;BME280;8287;51.644;8.494;2022-11-06T10:41:16;100126.94;;;15.10;58.43
16355;BME280;8287;51.644;8.494;2022-11-06T10:43:48;100122.59;;;15.18;58.42
16355;BME280;8287;51.644;8.494;2022-11-06T10:46:22;100125.78;;;15.35;58.39
16355;BME280;8287;51.644;8.494;2022-11-06T10:48:53;100109.03;;;15.50;56.88
16355;BME280;8287;51.644;8.494;2022-11-06T10:51:33;100110.66;;;15.55;57.13
16355;BME280;8287;51.644;8.494;2022-11-06T10:54:12;100106.03;;;15.67;57.28
16355;BME280;8287;51.644;8.494;2022-11-06T10:56:56;100093.91;;;15.70;56.56
16355;BME280;8287;51.644;8.494;2022-11-06T10:59:29;100091.56;;;15.68;56.04
16355;BME280;8287;51.644;8.494;2022-11-06T11:01:56;100093.06;;;15.81;57.81
16355;BME280;8287;51.644;8.494;2022-11-06T11:04:22;100083.22;;;15.70;58.03
16355;BME280;8287;51.644;8.494;2022-11-06T11:06:49;100072.63;;;15.89;57.42
16355;BME280;8287;51.644;8.494;2022-11-06T11:09:26;100065.38;;;16.05;56.00
16355;BME280;8287;51.644;8.494;2022-11-06T11:11:55;100062.16;;;16.15;56.15
16355;BME280;8287;51.644;8.494;2022-11-06T11:14:24;100055.69;;;16.16;56.15
16355;BME280;8287;51.644;8.494;2022-11-06T11:16:51;100055.59;;;16.12;54.88
16355;BME280;8287;51.644;8.494;2022-11-06T11:19:25;100039.22;;;16.14;54.83
16355;BME280;8287;51.644;8.494;2022-11-06T11:21:54;100040.94;;;16.22;54.81
16355;BME280;8287;51.644;8.494;2022-11-06T11:24:21;100032.84;;;16.18;54.49
16355;BME280;8287;51.644;8.494;2022-11-06T11:26:49;100024.69;;;16.30;54.70
16355;BME280;8287;51.644;8.494;2022-11-06T11:29:22;100031.03;;;16.38;54.84
16355;BME280;8287;51.644;8.494;2022-11-06T11:31:51;100028.66;;;16.36;54.76
16355;BME280;8287;51.644;8.494;2022-11-06T11:34:20;100020.56;;;16.48;54.80
16355;BME280;8287;51.644;8.494;2022-11-06T11:36:53;100016.75;;;16.49;52.74
16355;BME280;8287;51.644;8.494;2022-11-06T11:39:24;100007.47;;;16.62;54.59
16355;BME280;8287;51.644;8.494;2022-11-06T11:41:52;100000.31;;;16.66;52.32
16355;BME280;8287;51.644;8.494;2022-11-06T11:44:21;99998.94;;;16.75;51.45
16355;BME280;8287;51.644;8.494;2022-11-06T11:46:49;99989.81;;;16.95;51.86
16355;BME280;8287;51.644;8.494;2022-11-06T11:49:28;99983.28;;;17.15;50.53
16355;BME280;8287;51.644;8.494;2022-11-06T11:51:56;99974.31;;;17.27;48.94
16355;BME280;8287;51.644;8.494;2022-11-06T11:54:24;99960.25;;;17.33;49.29
16355;BME280;8287;51.644;8.494;2022-11-06T11:56:53;99960.47;;;17.44;48.94
16355;BME280;8287;51.644;8.494;2022-11-06T11:59:24;99960.31;;;17.56;49.60
16355;BME280;8287;51.644;8.494;2022-11-06T12:01:53;99962.50;;;17.76;49.73
16355;BME280;8287;51.644;8.494;2022-11-06T12:04:23;99954.97;;;17.82;47.95
16355;BME280;8287;51.644;8.494;2022-11-06T12:06:57;99959.59;;;17.85;47.95
16355;BME280;8287;51.644;8.494;2022-11-06T12:09:26;99947.31;;;17.84;47.08
16355;BME280;8287;51.644;8.494;2022-11-06T12:11:55;99938.09;;;17.55;47.31
16355;BME280;8287;51.644;8.494;2022-11-06T12:14:30;99944.63;;;17.58;48.95
16355;BME280;8287;51.644;8.494;2022-11-06T12:17:02;99936.28;;;17.63;48.96
16355;BME280;8287;51.644;8.494;2022-11-06T12:19:32;99930.28;;;17.69;48.39
16355;BME280;8287;51.644;8.494;2022-11-06T12:22:04;99925.00;;;17.76;48.83
16355;BME280;8287;51.644;8.494;2022-11-06T12:24:36;99918.31;;;17.89;48.13
16355;BME280;8287;51.644;8.494;2022-11-06T12:27:10;99918.16;;;18.08;47.03
16355;BME280;8287;51.644;8.494;2022-11-06T12:29:43;99907.88;;;18.10;47.29
16355;BME280;8287;51.644;8.494;2022-11-06T12:32:21;99895.97;;;18.08;47.54
16355;BME280;8287;51.644;8.494;2022-11-06T12:34:55;99875.50;;;17.96;46.86
16355;BME280;8287;51.644;8.494;2022-11-06T12:37:34;99884.81;;;18.06;47.19
16355;BME280;8287;51.644;8.494;2022-11-06T12:40:13;99882.97;;;17.32;50.06
16355;BME280;8287;51.644;8.494;2022-11-06T12:42:55;99870.06;;;17.63;50.38
16355;BME280;8287;51.644;8.494;2022-11-06T12:45:34;99881.13;;;17.36;52.48
16355;BME280;8287;51.644;8.494;2022-11-06T12:48:12;99874.91;;;17.06;53.10
16355;BME280;8287;51.644;8.494;2022-11-06T12:50:50;99881.31;;;17.24;53.93
16355;BME280;8287;51.644;8.494;2022-11-06T12:53:33;99889.44;;;17.53;52.62
16355;BME280;8287;51.644;8.494;2022-11-06T12:56:11;99886.94;;;16.74;53.46
16355;BME280;8287;51.644;8.494;2022-11-06T12:58:51;99879.53;;;16.86;52.90
16355;BME280;8287;51.644;8.494;2022-11-06T13:01:29;99872.09;;;16.20;54.82
16355;BME280;8287;51.644;8.494;2022-11-06T13:04:07;99867.97;;;15.69;56.08
16355;BME280;8287;51.644;8.494;2022-11-06T13:07:02;99860.06;;;16.10;56.08
16355;BME280;8287;51.644;8.494;2022-11-06T13:09:34;99861.53;;;16.08;56.35
16355;BME280;8287;51.644;8.494;2022-11-06T13:12:17;99860.91;;;16.52;53.81
16355;BME280;8287;51.644;8.494;2022-11-06T13:14:52;99844.25;;;16.81;54.17
16355;BME280;8287;51.644;8.494;2022-11-06T13:17:27;99837.34;;;17.02;52.47
16355;BME280;8287;51.644;8.494;2022-11-06T13:20:03;99837.41;;;16.83;53.46
16355;BME280;8287;51.644;8.494;2022-11-06T13:22:36;99838.72;;;16.93;52.34